Flight Track Log - Related Links

Times and Time Zones

All times are in EDT time to prevent confusion due to time zone crossing. See the N680AN flight status page for this flight to view local times or setup timezone preferences in your user account.

Time Position Orientation Groundspeed Altitude Reporting Facility
EDT Latitude Longitude Course Direction KTS MPH feet Rate Location/Type
Fri 12:24:07 PM 32.8500 -97.0167 79° East 182 209 3,200  Level Dallas / Fort Worth TRACON
Fri 12:25:00 PM 32.8100 -96.6867 68° East  Level FlightAware Approximate
Fri 12:25:07 PM 32.7833 -97.0000 168° South 235 270 6,100  Level Dallas / Fort Worth TRACON
Fri 12:26:00 PM 32.8742 -96.5517 59° Northeast  Level FlightAware Approximate
Fri 12:26:07 PM 32.7667 -96.9167 103° East 285 328 8,700  Level Dallas / Fort Worth TRACON
Fri 12:27:00 PM 32.9319 -96.4126 67° East  Level FlightAware Approximate
Fri 12:27:54 PM 32.8275 -96.7533 66° East 324 373 11,500  Level Fort Worth Center
Fri 12:28:00 PM 32.9750 -96.2666 79° East  Level FlightAware Approximate
Fri 12:28:54 PM 32.8622 -96.6319 71° East 335 386 13,300  Level Fort Worth Center
Fri 12:29:00 PM 32.9868 -96.1124 79° East  Level FlightAware Approximate
Fri 12:29:54 PM 32.8658 -96.5206 88° East 361 415 15,200  Level Fort Worth Center
Fri 12:30:54 PM 32.8689 -96.3772 89° East 384 442 17,300 1,850 Climbing Fort Worth Center
Fri 12:31:54 PM 32.8803 -96.2608 83° East 391 450 18,900 1,800 Climbing Fort Worth Center
Fri 12:32:54 PM 32.8997 -96.1069 81° East 414 476 20,900 1,800 Climbing Fort Worth Center
Fri 12:33:54 PM 32.9150 -95.9806 82° East 430 495 22,500 1,650 Climbing Fort Worth Center
Fri 12:34:54 PM 32.9358 -95.8119 82° East 459 528 24,200 1,850 Climbing Fort Worth Center
Fri 12:35:54 PM 32.9547 -95.6531 82° East 473 544 26,200 1,900 Climbing Fort Worth Center
Fri 12:36:54 PM 32.9711 -95.4919 83° East 480 552 28,000 1,800 Climbing Fort Worth Center
Fri 12:37:54 PM 32.9914 -95.3256 82° East 493 567 29,800 1,600 Climbing Fort Worth Center
Fri 12:38:54 PM 33.0053 -95.1667 84° East 493 567 31,200 1,300 Climbing Fort Worth Center
Fri 12:39:54 PM 33.0253 -94.9953 82° East 500 575 32,400 1,400 Climbing Fort Worth Center
Fri 12:40:54 PM 33.0428 -94.8236 83° East 512 589 34,000 1,400 Climbing Fort Worth Center
Fri 12:41:54 PM 33.0642 -94.6522 81° East 517 595 35,200 1,200 Climbing Fort Worth Center
Fri 12:42:54 PM 33.0831 -94.4781 83° East 523 602 36,400 900 Climbing Fort Worth Center
Fri 12:43:54 PM 33.1039 -94.3036 82° East 523 602 37,000 300 Climbing Fort Worth Center
Fri 12:44:54 PM 33.1203 -94.1294 84° East 523 602 37,000  Level Fort Worth Center
Fri 12:45:54 PM 33.1364 -93.9528 84° East 523 602 37,000  Level Fort Worth Center
Fri 12:46:54 PM 33.1550 -93.7908 82° East 537 618 37,000  Level Fort Worth Center
Fri 12:47:54 PM 33.1747 -93.6164 82° East 537 618 37,000  Level Fort Worth Center
Fri 12:48:54 PM 33.1922 -93.4394 83° East 537 618 37,000  Level Fort Worth Center
Fri 12:49:54 PM 33.2097 -93.2672 83° East 542 624 37,000  Level Fort Worth Center
Fri 12:50:54 PM 33.2267 -93.0878 84° East 542 624 37,000  Level Fort Worth Center
Fri 12:51:54 PM 33.2433 -92.9156 83° East 542 624 37,000  Level Fort Worth Center
Fri 12:52:54 PM 33.2706 -92.7428 79° East 536 617 37,000 580 Level Fort Worth Center
Fri 12:55:21 PM 33.4733 -92.4167 53° Northeast 507 583 39,000 580 Climbing Memphis Center
Fri 12:56:21 PM 33.5611 -92.2867 51° Northeast 494 568 39,000  Level Memphis Center
Fri 12:57:22 PM 33.6442 -92.1589 52° Northeast 489 563 39,000  Level Memphis Center
Fri 12:58:22 PM 33.7397 -92.0433 45° Northeast 484 557 39,000  Level Memphis Center
Fri 12:59:21 PM 33.8372 -91.9278 45° Northeast 478 550 39,000  Level Memphis Center
Fri 01:00:21 PM 33.9181 -91.7989 53° Northeast 478 550 39,000  Level Memphis Center
Fri 01:01:21 PM 34.0033 -91.6550 54° Northeast 483 556 39,000  Level Memphis Center
Fri 01:02:21 PM 34.0858 -91.5258 52° Northeast 478 550 39,000  Level Memphis Center
Fri 01:03:21 PM 34.1622 -91.3939 55° Northeast 478 550 39,000  Level Memphis Center
Fri 01:04:21 PM 34.2425 -91.2692 52° Northeast 471 542 39,000  Level Memphis Center
Fri 01:05:21 PM 34.3206 -91.1392 54° Northeast 471 542 39,000  Level Memphis Center
Fri 01:06:21 PM 34.3942 -91.0217 53° Northeast 476 548 39,000  Level Memphis Center
Fri 01:07:21 PM 34.4764 -90.8911 53° Northeast 482 555 39,000  Level Memphis Center
Fri 01:08:21 PM 34.5561 -90.7581 54° Northeast 487 560 39,000  Level Memphis Center
Fri 01:09:22 PM 34.6400 -90.6197 54° Northeast 493 567 39,000  Level Memphis Center
Fri 01:10:21 PM 34.7214 -90.4833 54° Northeast 502 578 39,000  Level Memphis Center
Fri 01:11:21 PM 34.8008 -90.3519 54° Northeast 497 572 39,000  Level Memphis Center
Fri 01:12:21 PM 34.8906 -90.2028 54° Northeast 497 572 39,000  Level Memphis Center
Fri 01:13:21 PM 34.9717 -90.0656 54° Northeast 497 572 39,000  Level Memphis Center
Fri 01:14:21 PM 35.0650 -89.9511 45° Northeast 492 566 39,000  Level Memphis Center
Fri 01:15:21 PM 35.1753 -89.8667 32° Northeast 470 541 39,000  Level Memphis Center
Fri 01:16:21 PM 35.2833 -89.7872 31° Northeast 459 528 39,000  Level Memphis Center
Fri 01:17:21 PM 35.3811 -89.7153 31° Northeast 448 516 39,000  Level Memphis Center
Fri 01:18:21 PM 35.4892 -89.6353 31° Northeast 454 522 39,000  Level Memphis Center
Fri 01:19:21 PM 35.5972 -89.5528 32° Northeast 449 517 39,000  Level Memphis Center
Fri 01:20:21 PM 35.7092 -89.4672 32° Northeast 449 517 39,000  Level Memphis Center
Fri 01:21:21 PM 35.8169 -89.3867 31° Northeast 443 510 39,000  Level Memphis Center
Fri 01:22:21 PM 35.9269 -89.3033 32° Northeast 448 516 39,000  Level Memphis Center
Fri 01:23:21 PM 36.0367 -89.2225 31° Northeast 453 521 39,000  Level Memphis Center
Fri 01:24:21 PM 36.1464 -89.1361 32° Northeast 453 521 39,000  Level Memphis Center
Fri 01:25:21 PM 36.2600 -89.0519 31° Northeast 458 527 39,000  Level Memphis Center
Fri 01:26:21 PM 36.3717 -88.9703 30° Northeast 464 534 39,000  Level Memphis Center
Fri 01:27:21 PM 36.4856 -88.8858 31° Northeast 469 540 39,000  Level Memphis Center
Fri 01:28:21 PM 36.5969 -88.8011 31° Northeast 464 534 39,000  Level Memphis Center
Fri 01:29:21 PM 36.7106 -88.7161 31° Northeast 464 534 39,000  Level Memphis Center
Fri 01:30:21 PM 36.8239 -88.6308 31° Northeast 464 534 39,000  Level Memphis Center
Fri 01:31:21 PM 36.9372 -88.5453 31° Northeast 464 534 39,000  Level Memphis Center
Fri 01:32:21 PM 37.0486 -88.4594 32° Northeast 464 534 39,000  Level Memphis Center
Fri 01:33:21 PM 37.1617 -88.3708 32° Northeast 464 534 39,000  Level Memphis Center
Fri 01:35:34 PM 37.3919 -88.1847 33° Northeast 475 547 39,000  Level Indianapolis Center
Fri 01:36:36 PM 37.5033 -88.0964 32° Northeast 470 541 39,000  Level Indianapolis Center
Fri 01:37:38 PM 37.6328 -87.9947 32° Northeast 464 534 39,000  Level Indianapolis Center
Fri 01:38:40 PM 37.7300 -87.8739 44° Northeast 486 559 39,000  Level Indianapolis Center
Fri 01:39:42 PM 37.8258 -87.7503 46° Northeast 484 557 39,000  Level Indianapolis Center
Fri 01:40:44 PM 37.9186 -87.6250 47° Northeast 486 559 39,000  Level Indianapolis Center
Fri 01:41:45 PM 38.0094 -87.4958 48° Northeast 488 562 39,000  Level Indianapolis Center
Fri 01:42:47 PM 38.0997 -87.3669 48° Northeast 487 560 39,000  Level Indianapolis Center
Fri 01:43:49 PM 38.1894 -87.2375 49° Northeast 487 560 39,000  Level Indianapolis Center
Fri 01:44:51 PM 38.2881 -87.0942 49° Northeast 490 564 39,000  Level Indianapolis Center
Fri 01:45:53 PM 38.3781 -86.9633 49° Northeast 489 563 39,000  Level Indianapolis Center
Fri 01:46:55 PM 38.4689 -86.8297 49° Northeast 492 566 39,000  Level Indianapolis Center
Fri 01:47:57 PM 38.5578 -86.6986 49° Northeast 488 562 39,000  Level Indianapolis Center
Fri 01:48:58 PM 38.6478 -86.5661 49° Northeast 490 564 39,000  Level Indianapolis Center
Fri 01:50:00 PM 38.7383 -86.4336 49° Northeast 492 566 39,000  Level Indianapolis Center
Fri 01:51:02 PM 38.8461 -86.2722 49° Northeast 496 571 39,000  Level Indianapolis Center
Fri 01:52:04 PM 38.9319 -86.1425 50° Northeast 495 570 39,000  Level Indianapolis Center
Fri 01:53:06 PM 39.0150 -85.9972 54° Northeast 502 578 39,000  Level Indianapolis Center
Fri 01:54:07 PM 39.0947 -85.8447 56° Northeast 510 587 39,000  Level Indianapolis Center
Fri 01:55:09 PM 39.1739 -85.6922 56° Northeast 512 589 39,000  Level Indianapolis Center
Fri 01:56:11 PM 39.2661 -85.5114 57° Northeast 517 595 39,000  Level Indianapolis Center
Fri 01:57:13 PM 39.3433 -85.3561 57° Northeast 514 592 39,000  Level Indianapolis Center
Fri 01:58:14 PM 39.4219 -85.2006 57° Northeast 516 594 39,000  Level Indianapolis Center
Fri 01:59:16 PM 39.5014 -85.0450 56° Northeast 517 595 39,000  Level Indianapolis Center
Fri 02:00:18 PM 39.5925 -84.9100 49° Northeast 494 568 39,000  Level Indianapolis Center
Fri 02:01:20 PM 39.7033 -84.7739 43° Northeast 492 566 39,000  Level Indianapolis Center
Fri 02:02:21 PM 39.8058 -84.6531 42° Northeast 491 565 39,000  Level Indianapolis Center
Fri 02:03:23 PM 39.9058 -84.5325 43° Northeast 486 559 39,000  Level Indianapolis Center
Fri 02:04:25 PM 39.9961 -84.3953 49° Northeast 507 583 39,000  Level Indianapolis Center
Fri 02:05:27 PM 40.0661 -84.2325 61° Northeast 507 583 39,000  Level Indianapolis Center
Fri 02:06:29 PM 40.1375 -84.0717 60° Northeast 505 581 39,000  Level Indianapolis Center
Fri 02:07:30 PM 40.2097 -83.9108 60° Northeast 506 582 39,000  Level Indianapolis Center
Fri 02:08:32 PM 40.2753 -83.7439 63° Northeast 507 583 39,000  Level Indianapolis Center
Fri 02:09:34 PM 40.3422 -83.5789 62° Northeast 506 582 39,000  Level Indianapolis Center
Fri 02:10:36 PM 40.4092 -83.4144 62° Northeast 504 580 39,000  Level Indianapolis Center
Fri 02:11:38 PM 40.4750 -83.2492 62° Northeast 504 580 39,000  Level Indianapolis Center
Fri 02:12:39 PM 40.5525 -83.0547 62° Northeast 504 580 39,000  Level Indianapolis Center
Fri 02:13:41 PM 40.6169 -82.8900 63° Northeast 504 580 39,000  Level Indianapolis Center
Fri 02:14:21 PM 40.6589 -82.7756 64° Northeast 502 578 39,000  Level Cleveland Center
Fri 02:15:21 PM 40.7244 -82.6133 62° Northeast 502 578 39,000  Level Cleveland Center
Fri 02:16:21 PM 40.7878 -82.4506 63° Northeast 507 583 39,000  Level Cleveland Center
Fri 02:17:21 PM 40.8508 -82.2822 64° Northeast 502 578 39,000  Level Cleveland Center
Fri 02:18:21 PM 40.9072 -82.1353 63° Northeast 507 583 39,000  Level Cleveland Center
Fri 02:19:21 PM 40.9717 -81.9692 63° Northeast 502 578 39,000  Level Cleveland Center
Fri 02:20:21 PM 41.0403 -81.8053 61° Northeast 502 578 39,000  Level Cleveland Center
Fri 02:21:21 PM 41.1067 -81.6469 61° Northeast 497 572 39,000  Level Cleveland Center
Fri 02:22:21 PM 41.1808 -81.4881 58° Northeast 497 572 39,000 -500 Level Cleveland Center
Fri 02:23:21 PM 41.2364 -81.3147 67° East 497 572 38,000 -950 Descending Cleveland Center
Fri 02:24:21 PM 41.2894 -81.1414 68° East 502 578 37,100 -500 Descending Cleveland Center
Fri 02:25:21 PM 41.3422 -80.9619 69° East 508 585 37,000 -50 Descending Cleveland Center
Fri 02:26:21 PM 41.3950 -80.7853 68° East 508 585 37,000  Level Cleveland Center
Fri 02:27:21 PM 41.4492 -80.6081 68° East 508 585 37,000  Level Cleveland Center
Fri 02:28:21 PM 41.5014 -80.4278 69° East 514 592 37,000  Level Cleveland Center
Fri 02:29:21 PM 41.5572 -80.2500 67° East 514 592 37,000  Level Cleveland Center
Fri 02:30:21 PM 41.6086 -80.0694 69° East 514 592 37,000  Level Cleveland Center
Fri 02:31:21 PM 41.6617 -79.8744 70° East 508 585 37,000  Level Cleveland Center
Fri 02:32:21 PM 41.7169 -79.6903 68° East 513 590 37,000  Level Cleveland Center
Fri 02:33:21 PM 41.7694 -79.5142 68° East 513 590 37,000  Level Cleveland Center
Fri 02:34:21 PM 41.8178 -79.3350 70° East 508 585 37,000  Level Cleveland Center
Fri 02:35:21 PM 41.8639 -79.1781 68° East 508 585 37,000  Level Cleveland Center
Fri 02:36:21 PM 41.9136 -79.0011 69° East 508 585 37,000  Level Cleveland Center
Fri 02:37:21 PM 41.9672 -78.8069 70° East 508 585 37,000  Level Cleveland Center
Fri 02:38:21 PM 42.0142 -78.6297 70° East 508 585 37,000  Level Cleveland Center
Fri 02:39:21 PM 42.0611 -78.4519 70° East 503 579 37,000  Level Cleveland Center
Fri 02:40:21 PM 42.1119 -78.2739 69° East 503 579 37,000  Level Cleveland Center
Fri 02:41:21 PM 42.1603 -78.0986 70° East 498 573 37,000  Level Cleveland Center
Fri 02:42:21 PM 42.2064 -77.9228 70° East 493 567 37,000  Level Cleveland Center
Fri 02:43:21 PM 42.2544 -77.7469 70° East 493 567 37,000  Level Cleveland Center
Fri 02:44:21 PM 42.3000 -77.5736 70° East 493 567 37,000  Level Cleveland Center
Fri 02:45:21 PM 42.3453 -77.3972 71° East 493 567 37,000  Level Cleveland Center
Fri 02:47:28 PM 42.4339 -77.0486 71° East 496 571 37,000  Level Boston Center
Fri 02:48:28 PM 42.4603 -76.8619 79° East 496 571 37,000  Level Boston Center
Fri 02:49:28 PM 42.4778 -76.6744 83° East 496 571 37,000  Level Boston Center
Fri 02:50:28 PM 42.4989 -76.4958 81° East 496 571 37,000  Level Boston Center
Fri 02:51:28 PM 42.5361 -76.3261 73° East 484 557 37,000  Level Boston Center
Fri 02:52:28 PM 42.6336 -76.2164 40° Northeast 439 505 37,000  Level Boston Center
Fri 02:53:28 PM 42.7347 -76.1208 35° Northeast 429 494 37,000  Level Boston Center
Fri 02:54:28 PM 42.7978 -75.9719 60° Northeast 440 506 37,000  Level Boston Center
Fri 02:55:28 PM 42.7931 -75.7847 92° East 445 512 37,000  Level Boston Center
Fri 02:56:28 PM 42.7903 -75.5950 91° East 469 540 37,000  Level Boston Center
Fri 02:57:28 PM 42.7869 -75.4081 91° East 482 555 37,000  Level Boston Center
Fri 02:58:28 PM 42.7833 -75.2211 91° East 495 570 37,000  Level Boston Center
Fri 02:59:28 PM 42.7797 -75.0117 91° East 503 579 37,000  Level Boston Center
Fri 03:00:28 PM 42.7756 -74.8247 92° East 497 572 37,000  Level Boston Center
Fri 03:01:40 PM 42.7711 -74.6350 92° East 497 572 37,000  Level Boston Center
Fri 03:02:40 PM 42.7647 -74.4056 92° East 497 572 37,000 -600 Level Boston Center
Fri 03:03:40 PM 42.7617 -74.2217 91° East 497 572 35,800 -1,000 Descending Boston Center
Fri 03:04:40 PM 42.7561 -74.0322 92° East 497 572 35,000 -400 Descending Boston Center
Fri 03:05:40 PM 42.7481 -73.8481 93° East 497 572 35,000  Level Boston Center
Fri 03:06:40 PM 42.7356 -73.6669 95° East 492 566 35,000 -50 Level Boston Center
Fri 03:07:40 PM 42.7144 -73.4800 99° East 492 566 34,900 -450 Descending Boston Center
Fri 03:08:40 PM 42.6953 -73.2961 98° East 492 566 34,100 -1,750 Descending Boston Center
Fri 03:09:40 PM 42.6756 -73.1122 98° East 492 566 31,400 -2,750 Descending Boston Center
Fri 03:10:40 PM 42.6536 -72.9228 99° East 492 566 28,600 -2,450 Descending Boston Center
Fri 03:11:40 PM 42.6333 -72.7392 98° East 499 574 26,500 -2,200 Descending Boston Center
Fri 03:12:40 PM 42.6192 -72.5728 97° East 474 545 24,200 -2,350 Descending Boston Center
Fri 03:13:40 PM 42.5900 -72.3978 103° East 463 533 21,800 -2,050 Descending Boston Center
Fri 03:14:40 PM 42.5733 -72.2569 99° East 450 518 20,100 -1,700 Descending Boston Center
Fri 03:15:40 PM 42.5500 -72.0906 101° East 413 475 18,400 -1,600 Descending Boston Center
Fri 03:16:40 PM 42.5369 -71.9469 97° East 390 449 16,900 -2,350 Descending Boston Center
Fri 03:17:40 PM 42.5236 -71.8092 97° East 378 435 13,700 -2,550 Descending Boston Center
Fri 03:18:40 PM 42.5125 -71.6739 96° East 368 423 11,800 -1,697 Descending Boston Center
Fri 03:19:19 PM 42.5000 -71.6000 103° East 315 362 10,900 -1,019 Descending KA90
Fri 03:20:26 PM 42.5000 -71.4667 90° East 312 359 10,000 -864 Descending KA90
Fri 03:21:31 PM 42.5333 -71.3500 69° East 298 343 9,000 -762 Descending KA90
Fri 03:22:32 PM 42.5500 -71.2500 77° East 270 311 8,400 -661 Descending KA90
Fri 03:23:20 PM 42.5667 -71.1667 75° East 248 285 7,800 -944 Descending KA90
Fri 03:24:20 PM 42.5667 -71.1000 90° East 227 261 6,700 -857 Descending KA90
Fri 03:25:26 PM 42.5000 -71.0333 144° Southeast 223 257 6,000 -350 Descending KA90
Fri 03:26:20 PM 42.4667 -70.9833 132° Southeast 225 259 6,000  Level KA90
Fri 03:27:14 PM 42.4167 -70.9333 144° Southeast 228 262 6,000 -238 Level KA90
Fri 03:28:26 PM 42.3500 -70.9333 180° South 222 255 5,500 -773 Descending KA90
Fri 03:29:26 PM 42.2833 -70.9500 190° South 212 244 4,300 -1,211 Descending KA90
Fri 03:30:20 PM 42.2333 -70.9833 206° Southwest 213 245 3,200 -684 Descending KA90
Fri 03:31:20 PM 42.1833 -71.0000 194° South 210 242 3,000 -100 Descending KA90
Fri 03:32:20 PM 42.1333 -71.0167 194° South 209 241 3,000  Level KA90
Fri 03:33:15 PM 42.1333 -71.0833 270° West 186 214 3,000  Level KA90
Fri 03:34:15 PM 42.1833 -71.1000 346° North 184 212 3,000 -50 Level KA90
Fri 03:35:15 PM 42.2167 -71.0667 37° Northeast 175 201 2,900 -100 Descending KA90

Login

Don't have an account? Register now (free) for customized features, flight alerts, and more!